createdAt,value
2018-10-18T00:02:18.690Z,18.40
2018-10-18T00:04:49.222Z,19.83
2018-10-18T00:07:19.785Z,19.43
2018-10-18T00:09:50.309Z,18.93
2018-10-18T00:12:20.870Z,19.60
2018-10-18T00:14:51.446Z,19.37
2018-10-18T00:17:27.264Z,19.43
2018-10-18T00:19:57.955Z,17.73
2018-10-18T00:22:28.520Z,17.23
2018-10-18T00:24:59.085Z,17.97
2018-10-18T00:27:29.593Z,18.27
2018-10-18T00:30:00.224Z,16.50
2018-10-18T00:32:33.564Z,16.67
2018-10-18T00:35:04.181Z,15.60
2018-10-18T00:37:34.771Z,17.30
2018-10-18T00:40:05.793Z,17.03
2018-10-18T00:42:36.363Z,15.90
2018-10-18T00:45:08.633Z,15.90
2018-10-18T00:47:39.255Z,17.30
2018-10-18T00:50:11.378Z,14.93
2018-10-18T00:52:41.993Z,15.87
2018-10-18T00:55:12.794Z,16.20
2018-10-18T00:57:43.410Z,16.10
2018-10-18T01:00:14.078Z,15.73
2018-10-18T01:02:44.570Z,16.60
2018-10-18T01:05:15.504Z,14.87
2018-10-18T01:07:46.110Z,15.73
2018-10-18T01:10:16.708Z,17.93
2018-10-18T01:12:47.328Z,16.77
2018-10-18T01:15:17.810Z,15.80
2018-10-18T01:17:48.342Z,16.00
2018-10-18T01:20:18.958Z,16.70
2018-10-18T01:22:49.513Z,16.40
2018-10-18T01:25:20.131Z,15.53
2018-10-18T01:27:50.762Z,16.10
2018-10-18T01:30:21.301Z,14.33
2018-10-18T01:32:51.915Z,15.40
2018-10-18T01:35:22.723Z,15.37
2018-10-18T01:37:53.344Z,15.13
2018-10-18T01:40:25.295Z,13.30
2018-10-18T01:42:55.853Z,13.30
2018-10-18T01:45:26.562Z,13.80
2018-10-18T01:47:57.135Z,15.27
2018-10-18T01:50:27.761Z,14.60
2018-10-18T01:52:58.349Z,15.07
2018-10-18T01:55:28.947Z,14.30
2018-10-18T01:57:59.536Z,13.80
2018-10-18T02:00:30.158Z,13.33
2018-10-18T02:03:00.755Z,13.50
2018-10-18T02:05:31.294Z,14.43
2018-10-18T02:08:01.958Z,14.23
2018-10-18T02:10:32.482Z,14.07
2018-10-18T02:13:03.022Z,12.87
2018-10-18T02:15:33.591Z,13.50
2018-10-18T02:18:04.230Z,12.90
2018-10-18T02:20:34.706Z,11.60
2018-10-18T02:23:05.538Z,12.90
2018-10-18T02:25:36.059Z,12.70
2018-10-18T02:28:06.962Z,12.13
2018-10-18T02:30:37.512Z,13.83
2018-10-18T02:33:08.109Z,13.50
2018-10-18T02:35:38.676Z,14.30
2018-10-18T02:38:09.371Z,14.50
2018-10-18T02:40:39.896Z,13.40
2018-10-18T02:43:10.542Z,13.50
2018-10-18T02:45:41.101Z,13.47
2018-10-18T02:48:11.658Z,12.80
2018-10-18T02:50:42.174Z,13.47
2018-10-18T02:53:12.685Z,13.60
2018-10-18T02:55:43.266Z,13.60
2018-10-18T02:58:13.762Z,13.80
2018-10-18T03:00:44.353Z,13.87
2018-10-18T03:03:14.893Z,14.40
2018-10-18T03:05:45.462Z,12.80
2018-10-18T03:08:16.072Z,12.70
2018-10-18T03:10:46.581Z,11.60
2018-10-18T03:13:17.144Z,12.77
2018-10-18T03:15:47.663Z,12.20
2018-10-18T03:18:18.321Z,12.20
2018-10-18T03:20:48.817Z,12.13
2018-10-18T03:23:19.337Z,11.47
2018-10-18T03:25:49.910Z,11.87
2018-10-18T03:28:20.435Z,12.33
2018-10-18T03:30:51.020Z,13.20
2018-10-18T03:33:21.819Z,13.30
2018-10-18T03:35:52.388Z,13.00
2018-10-18T03:38:23.010Z,12.40
2018-10-18T03:40:53.604Z,14.40
2018-10-18T03:43:24.237Z,14.10
2018-10-18T03:45:54.811Z,12.73
2018-10-18T03:48:25.417Z,13.93
2018-10-18T03:50:55.981Z,13.90
2018-10-18T03:53:26.569Z,14.23
2018-10-18T03:55:57.142Z,13.90
2018-10-18T03:58:27.714Z,13.90
2018-10-18T04:00:58.269Z,13.23
2018-10-18T04:03:28.783Z,14.00
2018-10-18T04:05:59.401Z,15.63
2018-10-18T04:08:29.888Z,14.50
2018-10-18T04:11:00.479Z,13.93
2018-10-18T04:13:31.077Z,14.70
2018-10-18T04:16:01.629Z,14.73
2018-10-18T04:18:32.257Z,14.37
2018-10-18T04:21:02.797Z,13.43
2018-10-18T04:23:34.402Z,17.10
2018-10-18T04:26:05.395Z,15.60
2018-10-18T04:28:35.949Z,14.63
2018-10-18T04:31:06.591Z,14.50
2018-10-18T04:33:37.139Z,13.60
2018-10-18T04:36:07.730Z,14.80
2018-10-18T04:38:38.339Z,15.40
2018-10-18T04:41:08.892Z,13.87
2018-10-18T04:43:39.433Z,48.40
2018-10-18T04:46:09.953Z,68.67
2018-10-18T04:48:40.560Z,42.50
2018-10-18T04:51:11.158Z,57.10
2018-10-18T04:53:41.760Z,30.57
2018-10-18T04:56:12.305Z,20.43
2018-10-18T04:58:42.854Z,15.20
2018-10-18T05:01:13.492Z,14.67
2018-10-18T05:03:44.038Z,13.83
2018-10-18T05:06:14.620Z,14.97
2018-10-18T05:08:45.173Z,15.40
2018-10-18T05:11:15.836Z,15.40
2018-10-18T05:13:46.384Z,16.20
2018-10-18T05:16:16.986Z,15.50
2018-10-18T05:18:47.500Z,16.27
2018-10-18T05:21:18.066Z,14.80
2018-10-18T05:23:48.663Z,14.37
2018-10-18T05:26:19.292Z,16.70
2018-10-18T05:28:49.812Z,16.47
2018-10-18T05:31:20.432Z,37.87
2018-10-18T05:33:50.959Z,77.97
2018-10-18T05:36:21.537Z,29.27
2018-10-18T05:38:52.045Z,18.87
2018-10-18T05:41:22.644Z,18.03
2018-10-18T05:43:53.199Z,20.17
2018-10-18T05:46:23.825Z,20.37
2018-10-18T05:48:54.436Z,22.80
2018-10-18T05:51:25.016Z,21.63
2018-10-18T05:53:55.776Z,18.83
2018-10-18T05:56:26.262Z,17.67
2018-10-18T05:58:56.905Z,16.70
2018-10-18T06:01:27.519Z,15.67
2018-10-18T06:03:58.124Z,16.70
2018-10-18T06:06:28.714Z,18.50
2018-10-18T06:08:59.329Z,16.60
2018-10-18T06:11:31.588Z,17.00
2018-10-18T06:14:02.192Z,17.30
2018-10-18T06:16:32.765Z,56.90
2018-10-18T06:19:03.446Z,84.40
2018-10-18T06:21:34.128Z,37.50
2018-10-18T06:24:04.809Z,21.03
2018-10-18T06:26:35.426Z,17.80
2018-10-18T06:29:06.403Z,16.37
2018-10-18T06:31:36.961Z,16.73
2018-10-18T06:34:07.595Z,15.20
2018-10-18T06:36:38.206Z,38.57
2018-10-18T06:39:11.259Z,97.77
2018-10-18T06:41:42.166Z,25.30
2018-10-18T06:44:12.753Z,16.40
2018-10-18T06:46:43.420Z,16.50
2018-10-18T06:49:14.081Z,16.43
2018-10-18T06:51:44.786Z,17.27
2018-10-18T06:54:15.809Z,17.37
2018-10-18T06:56:46.357Z,18.03
2018-10-18T06:59:17.945Z,17.73
2018-10-18T07:01:48.689Z,69.90
2018-10-18T07:04:19.312Z,39.17
2018-10-18T07:06:49.882Z,22.23
2018-10-18T07:09:20.521Z,16.73
2018-10-18T07:11:51.170Z,15.93
2018-10-18T07:14:21.818Z,18.33
2018-10-18T07:16:52.450Z,18.20
2018-10-18T07:19:23.126Z,18.70
2018-10-18T07:21:53.736Z,18.87
2018-10-18T07:24:24.346Z,18.53
2018-10-18T07:26:55.006Z,18.60
2018-10-18T07:29:25.641Z,18.57
2018-10-18T07:31:57.654Z,19.43
2018-10-18T07:34:28.249Z,18.07
2018-10-18T07:36:58.944Z,18.70
2018-10-18T07:39:29.986Z,18.20
2018-10-18T07:42:00.737Z,17.73
2018-10-18T07:44:31.330Z,17.13
2018-10-18T07:47:02.055Z,17.87
2018-10-18T07:49:33.355Z,19.20
2018-10-18T07:52:04.063Z,24.63
2018-10-18T07:54:34.669Z,22.73
2018-10-18T07:57:05.496Z,18.70
2018-10-18T07:59:36.164Z,17.67
2018-10-18T08:02:06.845Z,16.80
2018-10-18T08:04:37.512Z,15.70
2018-10-18T08:07:08.264Z,15.97
2018-10-18T08:09:38.824Z,17.27
2018-10-18T08:12:09.471Z,16.37
2018-10-18T08:14:40.074Z,15.83
2018-10-18T08:17:10.756Z,15.80
2018-10-18T08:19:41.337Z,15.47
2018-10-18T08:22:12.200Z,15.37
2018-10-18T08:24:42.799Z,15.90
2018-10-18T08:27:13.469Z,15.93
2018-10-18T08:29:44.154Z,15.37
2018-10-18T08:32:14.808Z,14.97
2018-10-18T08:34:45.454Z,13.60
2018-10-18T08:37:16.136Z,16.17
2018-10-18T08:39:46.690Z,14.23
2018-10-18T08:42:17.310Z,15.57
2018-10-18T08:44:47.937Z,14.90
2018-10-18T08:47:18.542Z,16.80
2018-10-18T08:49:49.273Z,14.87
2018-10-18T08:52:19.923Z,16.77
2018-10-18T08:54:50.545Z,15.57
2018-10-18T08:57:21.145Z,16.17
2018-10-18T08:59:51.778Z,15.90
2018-10-18T09:02:22.381Z,16.20
2018-10-18T09:04:52.994Z,16.77
2018-10-18T09:07:23.585Z,15.50
2018-10-18T09:09:54.199Z,15.90
2018-10-18T09:12:24.900Z,16.67
2018-10-18T09:14:55.557Z,15.83
2018-10-18T09:17:26.303Z,14.60
2018-10-18T09:19:56.972Z,13.83
2018-10-18T09:22:27.702Z,14.37
2018-10-18T09:24:58.360Z,15.67
2018-10-18T09:27:29.092Z,15.33
2018-10-18T09:29:59.829Z,15.80
2018-10-18T09:32:30.517Z,14.40
2018-10-18T09:35:01.112Z,13.30
2018-10-18T09:37:31.733Z,14.13
2018-10-18T09:40:02.365Z,18.70
2018-10-18T09:42:32.990Z,20.40
2018-10-18T09:45:03.748Z,20.20
2018-10-18T09:47:34.291Z,17.67
2018-10-18T09:50:04.996Z,16.70
2018-10-18T09:52:35.600Z,16.60
2018-10-18T09:55:07.790Z,15.50
2018-10-18T09:57:38.337Z,15.00
2018-10-18T10:00:13.426Z,14.20
2018-10-18T10:02:51.007Z,13.63
2018-10-18T10:05:21.702Z,12.40
2018-10-18T10:07:52.429Z,12.57
2018-10-18T10:10:23.154Z,13.00
2018-10-18T10:12:53.816Z,15.10
2018-10-18T10:15:24.563Z,15.60
2018-10-18T10:17:55.261Z,15.87
2018-10-18T10:20:25.967Z,15.07
2018-10-18T10:22:56.713Z,14.03
2018-10-18T10:25:27.756Z,12.90
2018-10-18T10:27:58.610Z,13.87
2018-10-18T10:30:29.344Z,12.87
2018-10-18T10:32:59.940Z,13.63
2018-10-18T10:35:30.674Z,14.37
2018-10-18T10:38:01.286Z,15.17
2018-10-18T10:40:32.033Z,14.83
2018-10-18T10:43:02.737Z,15.20
2018-10-18T10:45:33.353Z,15.20
2018-10-18T10:48:04.184Z,16.10
2018-10-18T10:50:34.737Z,15.57
2018-10-18T10:53:05.524Z,16.50
2018-10-18T10:55:36.162Z,17.23
2018-10-18T10:58:07.329Z,15.60
2018-10-18T11:01:17.126Z,16.77
2018-10-18T11:03:48.343Z,16.40
2018-10-18T11:06:19.268Z,15.67
2018-10-18T11:08:49.894Z,15.13
2018-10-18T11:11:21.344Z,14.83
2018-10-18T11:13:52.095Z,15.90
2018-10-18T11:16:23.117Z,16.50
2018-10-18T11:18:53.894Z,15.80
2018-10-18T11:21:24.598Z,13.60
2018-10-18T11:23:55.366Z,17.13
2018-10-18T11:26:26.037Z,17.30
2018-10-18T11:28:56.709Z,17.60
2018-10-18T11:31:27.398Z,18.30
2018-10-18T11:33:58.046Z,16.50
2018-10-18T11:36:28.747Z,17.10
2018-10-18T11:38:59.366Z,18.97
2018-10-18T11:41:30.714Z,16.20
2018-10-18T11:44:01.436Z,17.50
2018-10-18T11:46:32.116Z,16.83
2018-10-18T11:49:02.785Z,18.00
2018-10-18T11:51:33.540Z,17.67
2018-10-18T11:54:04.218Z,16.60
2018-10-18T11:56:34.897Z,16.70
2018-10-18T11:59:06.365Z,15.13
2018-10-18T12:01:37.058Z,16.07
2018-10-18T12:04:07.722Z,16.20
2018-10-18T12:06:38.439Z,16.73
2018-10-18T12:09:11.582Z,17.50
2018-10-18T12:11:42.243Z,19.13
2018-10-18T12:14:12.961Z,18.40
2018-10-18T12:16:43.626Z,17.77
2018-10-18T12:19:14.556Z,17.60
2018-10-18T12:21:45.255Z,18.87
2018-10-18T12:24:15.935Z,18.33
2018-10-18T12:26:46.652Z,19.07
2018-10-18T12:29:17.404Z,17.77
2018-10-18T12:31:47.966Z,17.70
2018-10-18T12:34:18.662Z,17.90
2018-10-18T12:36:49.313Z,18.80
2018-10-18T12:39:19.961Z,19.37
2018-10-18T12:41:50.344Z,19.07
2018-10-18T12:44:20.733Z,18.93
2018-10-18T12:46:51.101Z,18.83
2018-10-18T12:49:21.450Z,19.20
2018-10-18T12:51:51.805Z,16.57
2018-10-18T12:54:22.157Z,17.40
2018-10-18T12:56:52.498Z,17.73
2018-10-18T12:59:23.193Z,15.23
2018-10-18T13:01:53.547Z,14.73
2018-10-18T13:04:23.948Z,15.30
2018-10-18T13:06:54.343Z,15.17
2018-10-18T13:09:24.719Z,16.20
2018-10-18T13:11:55.126Z,16.70
2018-10-18T13:14:25.529Z,15.40
2018-10-18T13:16:55.860Z,15.23
2018-10-18T13:19:26.554Z,14.77
2018-10-18T13:21:56.879Z,14.30
2018-10-18T13:24:27.257Z,15.17
2018-10-18T13:26:57.609Z,15.70
2018-10-18T13:29:28.025Z,15.10
2018-10-18T13:31:58.400Z,14.80
2018-10-18T13:34:28.712Z,14.70
2018-10-18T13:36:59.008Z,13.67
2018-10-18T13:39:29.339Z,13.93
2018-10-18T13:41:59.642Z,13.23
2018-10-18T13:44:29.960Z,14.13
2018-10-18T13:47:00.329Z,14.03
2018-10-18T13:49:30.694Z,13.87
2018-10-18T13:52:01.036Z,14.40
2018-10-18T13:54:31.593Z,15.03
2018-10-18T13:57:01.901Z,14.17
2018-10-18T13:59:49.188Z,14.53
2018-10-18T14:02:20.418Z,13.80
2018-10-18T14:04:50.682Z,13.57
2018-10-18T14:07:21.012Z,14.80
2018-10-18T14:09:51.326Z,14.00
2018-10-18T14:12:21.651Z,13.13
2018-10-18T14:14:51.983Z,14.10
2018-10-18T14:17:22.427Z,12.83
2018-10-18T14:19:52.748Z,14.37
2018-10-18T14:22:23.013Z,12.93
2018-10-18T14:24:53.436Z,14.20
2018-10-18T14:27:23.758Z,14.17
2018-10-18T14:29:54.128Z,13.80
2018-10-18T14:32:24.422Z,14.80
2018-10-18T14:34:54.769Z,14.30
2018-10-18T14:37:25.105Z,14.80
2018-10-18T14:39:55.428Z,15.60
2018-10-18T14:42:25.778Z,15.97
2018-10-18T14:44:56.171Z,14.20
2018-10-18T14:47:26.517Z,14.17
2018-10-18T14:49:56.836Z,15.17
2018-10-18T14:52:27.251Z,16.73
2018-10-18T14:54:57.557Z,15.47
2018-10-18T14:57:27.940Z,14.43
2018-10-18T14:59:58.289Z,15.97
2018-10-18T15:02:28.718Z,15.60
2018-10-18T15:04:59.205Z,16.83
2018-10-18T15:07:29.518Z,22.70
2018-10-18T15:09:59.910Z,39.67
2018-10-18T15:12:30.336Z,48.80
2018-10-18T15:15:00.671Z,56.40
2018-10-18T15:17:31.572Z,56.03
2018-10-18T15:20:01.990Z,59.27
2018-10-18T15:22:32.857Z,111.80
2018-10-18T15:25:04.484Z,77.83
2018-10-18T15:27:34.871Z,75.90
2018-10-18T15:30:06.357Z,67.73
2018-10-18T15:32:36.910Z,67.20
2018-10-18T15:35:09.085Z,62.30
2018-10-18T15:37:39.713Z,70.37
2018-10-18T15:40:10.520Z,70.40
2018-10-18T15:42:40.884Z,59.53
2018-10-18T15:45:11.343Z,48.73
2018-10-18T15:47:41.688Z,49.70
2018-10-18T15:50:12.004Z,51.00
2018-10-18T15:52:42.378Z,51.20
2018-10-18T15:55:12.719Z,50.17
2018-10-18T15:57:43.047Z,48.13
2018-10-18T16:00:13.627Z,78.97
2018-10-18T16:02:43.946Z,72.67
2018-10-18T16:05:14.390Z,48.37
2018-10-18T16:07:44.682Z,41.27
2018-10-18T16:10:15.197Z,37.77
2018-10-18T16:12:45.536Z,38.40
2018-10-18T16:15:15.905Z,38.17
2018-10-18T16:17:46.459Z,35.53
2018-10-18T16:20:16.741Z,38.03
2018-10-18T16:22:47.044Z,34.83
2018-10-18T16:25:17.460Z,35.90
2018-10-18T16:27:47.872Z,36.10
2018-10-18T16:30:18.864Z,48.77
2018-10-18T16:32:49.204Z,41.70
2018-10-18T16:35:19.680Z,39.77
2018-10-18T16:37:50.048Z,39.53
2018-10-18T16:40:21.606Z,39.73
2018-10-18T16:42:52.020Z,37.83
2018-10-18T16:45:22.628Z,40.60
2018-10-18T16:47:52.973Z,46.47
2018-10-18T16:50:23.344Z,44.40
2018-10-18T16:52:53.809Z,43.20
2018-10-18T16:55:24.214Z,41.27
2018-10-18T16:57:54.660Z,38.50
2018-10-18T17:00:25.057Z,39.00
2018-10-18T17:02:55.855Z,36.80
2018-10-18T17:05:26.427Z,38.70
2018-10-18T17:07:57.018Z,33.20
2018-10-18T17:10:27.694Z,31.80
2018-10-18T17:12:58.689Z,31.47
2018-10-18T17:15:30.349Z,30.70
2018-10-18T17:18:02.204Z,33.30
2018-10-18T17:20:32.696Z,33.20
2018-10-18T17:23:02.957Z,33.17
2018-10-18T17:25:33.344Z,32.93
2018-10-18T17:28:04.717Z,32.97
2018-10-18T17:30:35.149Z,29.90
2018-10-18T17:33:05.745Z,27.97
2018-10-18T17:35:36.183Z,29.30
2018-10-18T17:38:07.030Z,32.77
2018-10-18T17:40:37.375Z,31.83
2018-10-18T17:43:07.802Z,52.57
2018-10-18T17:45:38.323Z,39.83
2018-10-18T17:48:08.802Z,29.60
2018-10-18T17:50:39.275Z,27.50
2018-10-18T17:53:09.887Z,29.13
2018-10-18T17:55:40.411Z,27.93
2018-10-18T17:58:10.871Z,27.77
2018-10-18T18:00:41.329Z,27.87
2018-10-18T18:03:11.890Z,27.97
2018-10-18T18:05:42.435Z,28.37
2018-10-18T18:08:13.077Z,27.30
2018-10-18T18:10:43.579Z,27.80
2018-10-18T18:13:14.050Z,29.73
2018-10-18T18:15:44.701Z,43.57
2018-10-18T18:18:15.338Z,79.50
2018-10-18T18:20:45.848Z,83.50
2018-10-18T18:23:16.422Z,68.17
2018-10-18T18:25:46.912Z,58.60
2018-10-18T18:28:17.311Z,50.23
2018-10-18T18:30:47.886Z,46.57
2018-10-18T18:33:18.402Z,41.57
2018-10-18T18:35:49.908Z,42.97
2018-10-18T18:38:20.867Z,43.07
2018-10-18T18:40:51.684Z,43.30
2018-10-18T18:43:22.124Z,38.40
2018-10-18T18:45:52.707Z,108.23
2018-10-18T18:48:23.241Z,113.53
2018-10-18T18:50:54.191Z,184.77
2018-10-18T18:53:24.976Z,45.03
2018-10-18T18:55:57.234Z,27.57
2018-10-18T18:58:28.009Z,24.60
2018-10-18T19:01:03.581Z,26.07
2018-10-18T19:03:34.077Z,23.40
2018-10-18T19:06:06.522Z,23.80
2018-10-18T19:08:37.350Z,24.40
2018-10-18T19:11:08.867Z,25.30
2018-10-18T19:13:39.493Z,26.70
2018-10-18T19:16:10.142Z,27.60
2018-10-18T19:18:40.817Z,25.53
2018-10-18T19:21:12.404Z,25.93
2018-10-18T19:23:42.892Z,25.23
2018-10-18T19:26:15.105Z,22.63
2018-10-18T19:28:45.621Z,22.63
2018-10-18T19:31:16.063Z,21.70
2018-10-18T19:33:46.613Z,25.00
2018-10-18T19:36:17.125Z,22.83
2018-10-18T19:38:47.585Z,22.77
2018-10-18T19:41:18.053Z,24.50
2018-10-18T19:43:48.537Z,24.90
2018-10-18T19:46:19.169Z,23.13
2018-10-18T19:48:49.539Z,23.13
2018-10-18T19:51:20.025Z,23.80
2018-10-18T19:53:50.599Z,24.53
2018-10-18T19:56:21.072Z,23.30
2018-10-18T19:58:51.578Z,23.43
2018-10-18T20:01:22.021Z,24.33
2018-10-18T20:03:52.596Z,23.90
2018-10-18T20:06:23.051Z,25.30
2018-10-18T20:08:53.530Z,25.10
2018-10-18T20:11:24.527Z,30.40
2018-10-18T20:13:55.032Z,28.70
2018-10-18T20:16:25.464Z,105.50
2018-10-18T20:18:55.943Z,33.80
2018-10-18T20:21:26.470Z,24.53
2018-10-18T20:23:56.999Z,26.03
2018-10-18T20:26:27.643Z,23.37
2018-10-18T20:28:57.872Z,23.97
2018-10-18T20:31:28.293Z,24.93
2018-10-18T20:33:58.699Z,25.20
2018-10-18T20:36:29.144Z,25.30
2018-10-18T20:38:59.627Z,24.83
2018-10-18T20:41:29.945Z,23.77
2018-10-18T20:44:00.261Z,23.53
2018-10-18T20:46:30.617Z,23.23
2018-10-18T20:49:00.921Z,22.10
2018-10-18T20:51:32.114Z,22.40
2018-10-18T20:54:02.483Z,26.50
2018-10-18T20:56:32.710Z,24.23
2018-10-18T20:59:03.101Z,24.03
2018-10-18T21:01:33.406Z,23.90
2018-10-18T21:04:03.705Z,25.70
2018-10-18T21:06:34.150Z,22.70
2018-10-18T21:09:05.506Z,23.90
2018-10-18T21:11:35.755Z,23.97
2018-10-18T21:14:06.445Z,22.23
2018-10-18T21:16:36.777Z,22.23
2018-10-18T21:19:07.121Z,24.03
2018-10-18T21:21:37.477Z,23.40
2018-10-18T21:24:07.722Z,22.90
2018-10-18T21:26:38.189Z,22.23
2018-10-18T21:29:08.626Z,22.43
2018-10-18T21:31:38.818Z,21.97
2018-10-18T21:34:09.162Z,22.23
2018-10-18T21:36:39.429Z,21.30
2018-10-18T21:39:09.881Z,24.77
2018-10-18T21:41:40.241Z,24.53
2018-10-18T21:44:10.581Z,27.87
2018-10-18T21:46:40.888Z,25.20
2018-10-18T21:49:11.209Z,23.53
2018-10-18T21:51:41.690Z,27.80
2018-10-18T21:54:12.009Z,29.47
2018-10-18T21:56:42.462Z,29.00
2018-10-18T21:59:13.138Z,25.60
2018-10-18T22:01:43.496Z,23.50
2018-10-18T22:04:13.862Z,24.80
2018-10-18T22:06:44.389Z,23.97
2018-10-18T22:09:14.446Z,28.30
2018-10-18T22:11:45.038Z,24.47
2018-10-18T22:14:15.948Z,25.40
2018-10-18T22:16:46.500Z,24.97
2018-10-18T22:19:16.822Z,26.70
2018-10-18T22:21:47.104Z,26.10
2018-10-18T22:24:17.393Z,25.97
2018-10-18T22:26:47.711Z,27.20
2018-10-18T22:29:18.102Z,27.00
2018-10-18T22:31:48.347Z,29.53
2018-10-18T22:34:18.638Z,27.33
2018-10-18T22:36:48.950Z,27.83
2018-10-18T22:39:19.252Z,29.83
2018-10-18T22:41:49.580Z,24.20
2018-10-18T22:44:19.967Z,25.70
2018-10-18T22:46:50.311Z,24.23
2018-10-18T22:49:20.607Z,26.87
2018-10-18T22:51:50.914Z,25.90
2018-10-18T22:54:21.257Z,27.27
2018-10-18T22:56:51.663Z,26.10
2018-10-18T22:59:22.033Z,26.07
2018-10-18T23:01:53.334Z,27.87
2018-10-18T23:04:23.703Z,26.70
2018-10-18T23:06:54.044Z,26.83
2018-10-18T23:09:24.390Z,28.07
2018-10-18T23:11:54.727Z,27.80
2018-10-18T23:14:25.005Z,28.43
2018-10-18T23:16:55.292Z,26.43
2018-10-18T23:19:25.604Z,27.53
2018-10-18T23:21:55.948Z,27.03
2018-10-18T23:24:26.278Z,25.60
2018-10-18T23:26:56.659Z,26.30
2018-10-18T23:29:26.986Z,25.70
2018-10-18T23:31:57.397Z,27.33
2018-10-18T23:34:27.760Z,27.00
2018-10-18T23:36:58.159Z,26.37
2018-10-18T23:39:28.531Z,27.90
2018-10-18T23:41:58.884Z,28.60
2018-10-18T23:44:29.298Z,28.40
2018-10-18T23:46:59.663Z,27.37
2018-10-18T23:49:30.002Z,26.60
2018-10-18T23:52:00.307Z,28.37
2018-10-18T23:54:30.655Z,28.57
2018-10-18T23:57:00.987Z,28.10
2018-10-18T23:59:31.282Z,28.33
